This is the latest recevied weather packets stored in our database for station/object IU4KCH-20. If no packets are shown the sender has not sent any weather packets the latest 10 day(s).
| Time | Temp. | Humidity | Pressure | Rain* | Wind** | Luminosity | Snow |
|---|---|---|---|---|---|---|---|
| 1777661837 | 19.44° C | 33% | 1022.4 hPa | - | - | - | - |
| 1777660936 | 20° C | 30% | 1022.2 hPa | - | - | - | - |
| 1777660035 | 20.56° C | 30% | 1022.1 hPa | - | - | - | - |
| 1777659135 | 22.22° C | 26% | 1022 hPa | - | - | - | - |
| 1777658234 | 23.33° C | 24% | 1021.9 hPa | - | - | - | - |
| 1777657333 | 23.33° C | 23% | 1021.9 hPa | - | - | - | - |
| 1777656432 | 24.44° C | 25% | 1021.9 hPa | - | - | - | - |
| 1777655531 | 23.89° C | 22% | 1021.9 hPa | - | - | - | - |
| 1777654631 | 23.89° C | 21% | 1021.8 hPa | - | - | - | - |
| 1777652829 | 29.44° C | 17% | 1022 hPa | - | - | - | - |
| 1777651928 | 26.67° C | 20% | 1022.1 hPa | - | - | - | - |
| 1777651027 | 30° C | 17% | 1022.2 hPa | - | - | - | - |
| 1777650126 | 26.67° C | 19% | 1022.2 hPa | - | - | - | - |
| 1777649226 | 31.11° C | 15% | 1022.3 hPa | - | - | - | - |
| 1777648325 | 26.67° C | 19% | 1022.4 hPa | - | - | - | - |
| 1777647424 | 26.67° C | 18% | 1022.5 hPa | - | - | - | - |
| 1777646523 | 33.89° C | 14% | 1022.6 hPa | - | - | - | - |
| 1777645622 | 36.67° C | 12% | 1022.7 hPa | - | - | - | - |
| 1777644721 | 38.33° C | 12% | 1022.9 hPa | - | - | - | - |
| 1777643821 | 38.89° C | 13% | 1023.1 hPa | - | - | - | - |
| 1777642920 | 36.11° C | 14% | 1023.3 hPa | - | - | - | - |
| 1777642020 | 37.22° C | 14% | 1023.4 hPa | - | - | - | - |
| 1777641118 | 36.67° C | 14% | 1023.5 hPa | - | - | - | - |
| 1777640217 | 36.11° C | 15% | 1023.8 hPa | - | - | - | - |
| 1777639316 | 33.89° C | 16% | 1024 hPa | - | - | - | - |
* Rain since midnight (hover to see other rain measurements)
** Current wind speed in m/s (hover to see current wind gust speed)